»·PEaware :: N416JK KWJF-KSNA

N416JK :: KWJF-KSNA

FLIGHT INFORMATION

Flight Status: Arrived
Operator: Privately registered:
United States
More flights under this callsign
Pilot: John K. (4202)
Aircraft: CESSNA 206 STATIONAIR
(C206)
More flights by this aircraft type
Origin: KWJF Gen Fox
United States
Destination: KSNA John Wayne-Orange Co
United States
More flights between these airports :: More routes between these airports
Route: PMD V201 BERRI V459 SLI
File this flight plan on PilotEdge
Remarks:
Altitude:
(Current/Filed)
9,000ft
Speed:
(Current/Filed)
140kts
Departed: 09-May-19 01:03 PM
Arrived: 09-May-19 01:51 PM
Distance/Time
Traveled:
66nm/0:48
Distance/Time
To Go:
Arrived

Flight Plot

Page will automatically refresh every two minutes.


Map Options




Map Legend


Flown Route
Filed Route
Departure Airport
Arrival Airport
Navaid (VOR, NDB)
Fix

Horizontal Profiles

Position Reports

Time Latitude Longitude Heading Altitude Ground
Speed
09-May-19 12:50 34.739064 -118.217242 254 2355ft 0kts
09-May-19 12:51 34.739064 -118.217242 254 2355ft 0kts
09-May-19 12:52 34.739064 -118.217242 254 2355ft 0kts
09-May-19 12:53 34.739064 -118.217242 254 2355ft 0kts
09-May-19 12:54 34.739064 -118.217242 254 2355ft 0kts
09-May-19 12:55 34.739064 -118.217242 254 2355ft 0kts
09-May-19 12:56 34.739064 -118.217242 254 2355ft 0kts
09-May-19 12:57 34.739064 -118.217242 254 2355ft 0kts
09-May-19 12:58 34.739064 -118.217242 254 2355ft 0kts
09-May-19 12:59 34.739731 -118.217935 328 2355ft 17kts
09-May-19 13:00 34.742275 -118.210230 72 2355ft 32kts
09-May-19 13:01 34.743003 -118.207303 52 2355ft 0kts
09-May-19 13:02 34.743410 -118.209824 251 2355ft 62kts
09-May-19 13:03 34.732270 -118.212400 106 3431ft 104kts
09-May-19 13:04 34.725259 -118.178146 134 4556ft 107kts
09-May-19 13:05 34.705824 -118.153708 140 5546ft 98kts
09-May-19 13:06 34.687084 -118.130878 144 6482ft 93kts
09-May-19 13:07 34.664378 -118.131843 196 7377ft 86kts
09-May-19 13:09 34.642333 -118.139218 194 8189ft 86kts
09-May-19 13:10 34.619158 -118.147409 196 8964ft 93kts
09-May-19 13:11 34.588463 -118.158378 196 8997ft 132kts
09-May-19 13:12 34.551033 -118.171450 196 8993ft 143kts
09-May-19 13:13 34.512641 -118.184779 196 8966ft 145kts
09-May-19 13:14 34.473325 -118.198369 196 8966ft 151kts
09-May-19 13:15 34.433238 -118.212211 196 9032ft 147kts
09-May-19 13:16 34.393116 -118.226038 196 9057ft 153kts
09-May-19 13:17 34.352239 -118.240118 196 9056ft 151kts
09-May-19 13:18 34.311932 -118.253990 195 9044ft 149kts
09-May-19 13:19 34.272495 -118.267528 195 9056ft 149kts
09-May-19 13:20 34.232492 -118.280991 196 9024ft 150kts
09-May-19 13:21 34.192273 -118.288868 160 9022ft 151kts
09-May-19 13:22 34.153712 -118.267837 156 9020ft 152kts
09-May-19 13:23 34.115605 -118.245955 156 9020ft 152kts
09-May-19 13:24 34.077731 -118.224122 156 9019ft 151kts
09-May-19 13:25 34.039836 -118.202315 156 9019ft 151kts
09-May-19 13:26 34.002049 -118.180469 153 9017ft 150kts
09-May-19 13:27 33.963091 -118.173434 188 9019ft 148kts
09-May-19 13:28 33.922898 -118.181921 193 9028ft 148kts
09-May-19 13:29 33.881135 -118.193443 193 8235ft 160kts
09-May-19 13:30 33.838316 -118.204665 192 7282ft 156kts
09-May-19 13:30 33.816572 -118.180377 87 6462ft 165kts
09-May-19 13:32 33.820041 -118.116701 85 5327ft 164kts
09-May-19 13:33 33.821871 -118.065356 86 4977ft 141kts
09-May-19 13:34 33.824634 -118.018885 84 4970ft 140kts
09-May-19 13:35 33.828447 -117.971874 65 4965ft 145kts
09-May-19 13:35 33.845826 -117.937090 56 4265ft 132kts
09-May-19 13:37 33.866805 -117.897650 56 3096ft 122kts
09-May-19 13:37 33.882025 -117.868552 56 2990ft 120kts
09-May-19 13:38 33.899297 -117.835108 56 2990ft 116kts
09-May-19 13:39 33.903179 -117.799366 109 2990ft 116kts
09-May-19 13:40 33.892720 -117.766607 110 2985ft 84kts
09-May-19 13:41 33.875411 -117.757750 183 2992ft 72kts
09-May-19 13:42 33.850845 -117.758846 193 2991ft 103kts
09-May-19 13:43 33.823531 -117.774889 208 3024ft 113kts
09-May-19 13:44 33.794942 -117.792974 211 2723ft 114kts
09-May-19 13:45 33.767651 -117.810463 211 2093ft 101kts
09-May-19 13:46 33.745481 -117.824564 210 1508ft 83kts
09-May-19 13:47 33.725753 -117.837085 208 1057ft 80kts
09-May-19 13:48 33.703958 -117.850894 208 582ft 92kts
09-May-19 13:49 33.680195 -117.865903 205 70ft 84kts
09-May-19 13:50 33.674103 -117.871781 262 60ft 10kts

Navigation Log

Ident Type
Flight plan parsing failed, navigation log unavailable